createdAt,value
2016-11-21T00:00:39.489Z,0
2016-11-21T00:01:53.189Z,0
2016-11-21T00:03:06.902Z,0
2016-11-21T00:04:20.623Z,0
2016-11-21T00:05:34.426Z,0
2016-11-21T00:06:48.261Z,0
2016-11-21T00:08:04.094Z,0
2016-11-21T00:09:20.267Z,0
2016-11-21T00:10:34.358Z,0
2016-11-21T00:11:48.205Z,0
2016-11-21T00:13:01.933Z,0
2016-11-21T00:14:15.956Z,0
2016-11-21T00:15:29.677Z,0
2016-11-21T00:16:43.391Z,0
2016-11-21T00:17:57.129Z,0
2016-11-21T00:19:08.253Z,0
2016-11-21T00:20:21.957Z,0
2016-11-21T00:21:35.660Z,0
2016-11-21T00:22:49.405Z,0
2016-11-21T00:24:03.123Z,0
2016-11-21T00:25:17.052Z,0
2016-11-21T00:26:30.785Z,0
2016-11-21T00:27:44.517Z,0
2016-11-21T00:28:58.264Z,0
2016-11-21T00:30:11.942Z,0
2016-11-21T00:31:24.369Z,0
2016-11-21T00:32:38.308Z,0
2016-11-21T00:33:52.011Z,0
2016-11-21T00:35:05.715Z,0
2016-11-21T00:36:19.427Z,0
2016-11-21T00:37:33.257Z,0
2016-11-21T00:38:47.032Z,0
2016-11-21T00:40:00.722Z,0
2016-11-21T00:41:14.431Z,0
2016-11-21T00:42:28.126Z,0
2016-11-21T00:43:40.577Z,0
2016-11-21T00:44:54.376Z,0
2016-11-21T00:46:08.182Z,0
2016-11-21T00:47:21.894Z,0
2016-11-21T00:48:35.614Z,0
2016-11-21T00:49:49.314Z,0
2016-11-21T00:51:03.027Z,0
2016-11-21T00:52:16.783Z,0
2016-11-21T00:53:30.505Z,0
2016-11-21T00:54:41.641Z,0
2016-11-21T00:55:55.339Z,0
2016-11-21T00:57:09.049Z,0
2016-11-21T00:58:22.768Z,0
2016-11-21T00:59:36.702Z,0
2016-11-21T01:00:50.446Z,0
2016-11-21T01:02:04.168Z,0
2016-11-21T01:03:17.869Z,0
2016-11-21T01:04:31.589Z,0
2016-11-21T01:05:45.341Z,0
2016-11-21T01:06:59.045Z,0
2016-11-21T01:08:12.869Z,0
2016-11-21T01:09:26.669Z,0
2016-11-21T01:10:40.381Z,0
2016-11-21T01:11:54.100Z,0
2016-11-21T01:13:07.837Z,0
2016-11-21T01:14:21.547Z,0
2016-11-21T01:15:35.251Z,0
2016-11-21T01:16:48.954Z,0
2016-11-21T01:18:02.642Z,0
2016-11-21T01:19:15.259Z,0
2016-11-21T01:20:26.426Z,0
2016-11-21T01:21:40.114Z,0
2016-11-21T01:22:53.817Z,0
2016-11-21T01:24:07.527Z,0
2016-11-21T01:25:21.235Z,0
2016-11-21T01:26:34.953Z,0
2016-11-21T01:27:48.678Z,0
2016-11-21T01:29:02.371Z,0
2016-11-21T01:30:16.060Z,0
2016-11-21T01:31:29.777Z,0
2016-11-21T01:32:43.530Z,0
2016-11-21T01:33:57.230Z,0
2016-11-21T01:35:11.008Z,0
2016-11-21T01:36:23.453Z,0
2016-11-21T01:37:37.143Z,0
2016-11-21T01:38:50.847Z,0
2016-11-21T01:40:04.539Z,0
2016-11-21T01:41:17.179Z,0
2016-11-21T01:42:30.869Z,0
2016-11-21T01:43:44.555Z,0
2016-11-21T01:44:58.257Z,0
2016-11-21T01:46:11.987Z,0
2016-11-21T01:47:25.939Z,0
2016-11-21T01:48:39.656Z,0
2016-11-21T01:49:53.348Z,0
2016-11-21T01:51:07.080Z,0
2016-11-21T01:52:20.776Z,0
2016-11-21T01:53:34.474Z,0
2016-11-21T01:54:48.173Z,0
2016-11-21T01:56:01.876Z,0
2016-11-21T01:57:15.587Z,0
2016-11-21T01:58:29.292Z,0
2016-11-21T01:59:43.043Z,0
2016-11-21T02:00:56.744Z,0
2016-11-21T02:02:10.441Z,0
2016-11-21T02:03:24.136Z,0
2016-11-21T02:04:36.581Z,0
2016-11-21T02:05:50.272Z,0
2016-11-21T02:07:03.985Z,0
2016-11-21T02:08:17.701Z,0
2016-11-21T02:09:31.380Z,0
2016-11-21T02:10:45.095Z,0
2016-11-21T02:11:58.815Z,0
2016-11-21T02:13:12.532Z,0
2016-11-21T02:14:26.230Z,0
2016-11-21T02:15:39.950Z,0
2016-11-21T02:16:53.630Z,0
2016-11-21T02:18:07.320Z,0
2016-11-21T02:19:21.046Z,0
2016-11-21T02:20:34.982Z,0
2016-11-21T02:21:47.615Z,0
2016-11-21T02:23:01.314Z,0
2016-11-21T02:24:15.025Z,0
2016-11-21T02:25:28.726Z,0
2016-11-21T02:26:42.448Z,0
2016-11-21T02:27:56.147Z,0
2016-11-21T02:29:09.873Z,0
2016-11-21T02:30:23.578Z,0
2016-11-21T02:31:37.273Z,0
2016-11-21T02:32:50.989Z,0
2016-11-21T02:34:04.688Z,0
2016-11-21T02:35:18.643Z,0
2016-11-21T02:36:32.331Z,0
2016-11-21T02:37:43.481Z,0
2016-11-21T02:38:57.206Z,0
2016-11-21T02:40:10.911Z,0
2016-11-21T02:41:24.622Z,0
2016-11-21T02:42:38.323Z,0
2016-11-21T02:43:52.044Z,0
2016-11-21T02:45:04.454Z,0
2016-11-21T02:46:18.174Z,0
2016-11-21T02:47:31.901Z,0
2016-11-21T02:48:45.602Z,0
2016-11-21T02:49:59.304Z,0
2016-11-21T02:51:12.992Z,0
2016-11-21T02:52:25.396Z,0
2016-11-21T02:53:39.076Z,0
2016-11-21T02:54:52.791Z,0
2016-11-21T02:56:05.249Z,0
2016-11-21T02:57:19.022Z,0
2016-11-21T02:58:32.755Z,0
2016-11-21T02:59:46.444Z,0
2016-11-21T03:01:00.155Z,0
2016-11-21T03:02:13.855Z,0
2016-11-21T03:03:27.546Z,0
2016-11-21T03:04:41.267Z,0
2016-11-21T03:05:55.114Z,0
2016-11-21T03:07:08.807Z,0
2016-11-21T03:08:22.528Z,0
2016-11-21T03:09:36.238Z,0
2016-11-21T03:10:49.923Z,0
2016-11-21T03:12:03.653Z,0
2016-11-21T03:13:17.390Z,0
2016-11-21T03:14:31.083Z,0
2016-11-21T03:15:44.779Z,0
2016-11-21T03:16:57.285Z,0
2016-11-21T03:18:10.998Z,0
2016-11-21T03:19:24.689Z,0
2016-11-21T03:20:37.115Z,0
2016-11-21T03:21:50.822Z,0
2016-11-21T03:23:04.546Z,0
2016-11-21T03:24:18.542Z,0
2016-11-21T03:25:32.227Z,0
2016-11-21T03:26:45.913Z,0
2016-11-21T03:27:59.615Z,0
2016-11-21T03:29:13.317Z,0
2016-11-21T03:30:27.225Z,0
2016-11-21T03:31:40.994Z,0
2016-11-21T03:32:54.704Z,0
2016-11-21T03:34:08.394Z,0
2016-11-21T03:35:22.131Z,0
2016-11-21T03:36:35.828Z,0
2016-11-21T03:37:49.516Z,0
2016-11-21T03:39:03.211Z,0
2016-11-21T03:40:15.617Z,0
2016-11-21T03:41:29.363Z,0
2016-11-21T03:42:43.382Z,0
2016-11-21T03:43:57.072Z,0
2016-11-21T03:45:10.807Z,0
2016-11-21T03:46:24.736Z,0
2016-11-21T03:47:37.135Z,0
2016-11-21T03:48:49.541Z,0
2016-11-21T03:50:03.329Z,0
2016-11-21T03:51:15.728Z,0
2016-11-21T03:52:29.765Z,0
2016-11-21T03:53:43.452Z,0
2016-11-21T03:54:57.163Z,0
2016-11-21T03:56:09.574Z,0
2016-11-21T03:57:23.312Z,0
2016-11-21T03:58:37.157Z,0
2016-11-21T03:59:50.880Z,0
2016-11-21T04:01:04.604Z,0
2016-11-21T04:02:18.336Z,0
2016-11-21T04:03:32.054Z,0
2016-11-21T04:04:45.747Z,0
2016-11-21T04:05:59.451Z,0
2016-11-21T04:07:13.135Z,0
2016-11-21T04:08:25.614Z,0
2016-11-21T04:09:39.308Z,0
2016-11-21T04:10:53.005Z,0
2016-11-21T04:12:06.742Z,0
2016-11-21T04:13:20.437Z,0
2016-11-21T04:14:34.133Z,0
2016-11-21T04:15:47.876Z,0
2016-11-21T04:17:01.567Z,0
2016-11-21T04:18:15.279Z,0
2016-11-21T04:19:29.030Z,0
2016-11-21T04:20:42.871Z,0
2016-11-21T04:21:56.561Z,0
2016-11-21T04:23:10.254Z,0
2016-11-21T04:24:23.951Z,0
2016-11-21T04:25:37.643Z,0
2016-11-21T04:26:51.388Z,0
2016-11-21T04:28:05.080Z,0
2016-11-21T04:29:17.489Z,0
2016-11-21T04:30:31.183Z,0
2016-11-21T04:31:44.895Z,0
2016-11-21T04:32:58.848Z,0
2016-11-21T04:34:12.535Z,0
2016-11-21T04:35:26.240Z,0
2016-11-21T04:36:39.949Z,0
2016-11-21T04:37:53.695Z,0
2016-11-21T04:39:07.404Z,0
2016-11-21T04:40:21.090Z,0
2016-11-21T04:41:34.773Z,0
2016-11-21T04:42:48.573Z,0
2016-11-21T04:44:02.300Z,0
2016-11-21T04:45:16.043Z,0
2016-11-21T04:46:29.791Z,0
2016-11-21T04:47:43.525Z,0
2016-11-21T04:48:57.221Z,0
2016-11-21T04:50:10.955Z,0
2016-11-21T04:51:24.677Z,0
2016-11-21T04:52:37.083Z,0
2016-11-21T04:53:50.793Z,0
2016-11-21T04:55:04.769Z,0
2016-11-21T04:56:18.459Z,0
2016-11-21T04:57:32.149Z,0
2016-11-21T04:58:45.890Z,0
2016-11-21T04:59:59.822Z,0
2016-11-21T05:01:13.542Z,0
2016-11-21T05:02:27.252Z,0
2016-11-21T05:03:40.982Z,0
2016-11-21T05:04:54.676Z,0
2016-11-21T05:06:08.377Z,0
2016-11-21T05:07:22.120Z,0
2016-11-21T05:08:35.810Z,0
2016-11-21T05:09:49.529Z,0
2016-11-21T05:11:03.258Z,0
2016-11-21T05:12:16.953Z,0
2016-11-21T05:13:29.403Z,0
2016-11-21T05:14:43.093Z,0
2016-11-21T05:15:56.801Z,0
2016-11-21T05:17:10.514Z,0
2016-11-21T05:18:24.202Z,0
2016-11-21T05:19:37.911Z,0
2016-11-21T05:20:51.615Z,0
2016-11-21T05:22:05.311Z,0
2016-11-21T05:23:19.001Z,0
2016-11-21T05:24:32.718Z,0
2016-11-21T05:25:46.421Z,0
2016-11-21T05:27:00.107Z,0
2016-11-21T05:28:13.811Z,0
2016-11-21T05:29:27.656Z,0
2016-11-21T05:30:41.407Z,0
2016-11-21T05:31:55.108Z,0
2016-11-21T05:33:08.811Z,0
2016-11-21T05:34:22.510Z,0
2016-11-21T05:35:36.210Z,0
2016-11-21T05:36:49.920Z,0
2016-11-21T05:38:03.607Z,0
2016-11-21T05:39:17.290Z,0
2016-11-21T05:40:30.984Z,0
2016-11-21T05:41:44.687Z,0
2016-11-21T05:42:58.368Z,0
2016-11-21T05:44:12.157Z,0
2016-11-21T05:45:25.835Z,0
2016-11-21T05:46:39.525Z,0
2016-11-21T05:47:53.309Z,0
2016-11-21T05:49:07.025Z,0
2016-11-21T05:50:20.747Z,0
2016-11-21T05:51:34.493Z,0
2016-11-21T05:52:48.187Z,0
2016-11-21T05:54:01.880Z,0
2016-11-21T05:55:15.582Z,0
2016-11-21T05:56:29.329Z,0
2016-11-21T05:57:41.992Z,0
2016-11-21T05:58:55.688Z,0
2016-11-21T06:00:09.388Z,0
2016-11-21T06:01:23.084Z,0
2016-11-21T06:02:36.805Z,0
2016-11-21T06:03:50.532Z,0
2016-11-21T06:05:04.274Z,0
2016-11-21T06:06:17.968Z,0
2016-11-21T06:07:30.401Z,0
2016-11-21T06:08:44.106Z,0
2016-11-21T06:09:55.240Z,0
2016-11-21T06:11:07.642Z,0
2016-11-21T06:12:21.356Z,0
2016-11-21T06:13:35.064Z,0
2016-11-21T06:14:48.752Z,0
2016-11-21T06:16:02.465Z,0
2016-11-21T06:17:16.163Z,0
2016-11-21T06:18:29.892Z,0
2016-11-21T06:19:43.584Z,0
2016-11-21T06:20:57.306Z,0
2016-11-21T06:22:11.123Z,0
2016-11-21T06:23:24.856Z,0
2016-11-21T06:24:38.590Z,0
2016-11-21T06:25:50.996Z,0
2016-11-21T06:27:04.699Z,0
2016-11-21T06:28:18.443Z,0
2016-11-21T06:29:32.388Z,0
2016-11-21T06:30:46.099Z,0
2016-11-21T06:31:59.818Z,0
2016-11-21T06:33:13.511Z,5
2016-11-21T06:34:27.203Z,5
2016-11-21T06:35:40.903Z,5
2016-11-21T06:36:54.607Z,10
2016-11-21T06:38:08.314Z,10
2016-11-21T06:39:22.009Z,10
2016-11-21T06:40:35.696Z,10
2016-11-21T06:41:49.416Z,15
2016-11-21T06:43:03.117Z,15
2016-11-21T06:44:17.042Z,10
2016-11-21T06:45:30.753Z,10
2016-11-21T06:46:44.464Z,10
2016-11-21T06:47:58.157Z,10
2016-11-21T06:49:11.852Z,10
2016-11-21T06:50:25.569Z,10
2016-11-21T06:51:39.277Z,10
2016-11-21T06:52:52.980Z,10
2016-11-21T06:54:05.492Z,10
2016-11-21T06:55:19.272Z,15
2016-11-21T06:56:32.960Z,15
2016-11-21T06:57:46.911Z,15
2016-11-21T06:59:00.736Z,20
2016-11-21T07:00:13.190Z,20
2016-11-21T07:01:26.927Z,25
2016-11-21T07:02:40.620Z,25
2016-11-21T07:03:54.329Z,30
2016-11-21T07:05:08.052Z,30
2016-11-21T07:06:21.819Z,35
2016-11-21T07:07:35.525Z,35
2016-11-21T07:08:49.227Z,35
2016-11-21T07:10:02.917Z,40
2016-11-21T07:11:16.622Z,40
2016-11-21T07:12:30.337Z,40
2016-11-21T07:13:44.038Z,40
2016-11-21T07:14:56.498Z,40
2016-11-21T07:16:08.904Z,40
2016-11-21T07:17:22.600Z,40
2016-11-21T07:18:36.288Z,40
2016-11-21T07:19:50.013Z,45
2016-11-21T07:21:03.697Z,50
2016-11-21T07:22:17.385Z,55
2016-11-21T07:23:31.072Z,60
2016-11-21T07:24:44.796Z,65
2016-11-21T07:25:58.481Z,75
2016-11-21T07:27:12.187Z,80
2016-11-21T07:28:25.883Z,85
2016-11-21T07:29:38.311Z,90
2016-11-21T07:30:52.083Z,95
2016-11-21T07:32:04.520Z,100
2016-11-21T07:33:16.949Z,100
2016-11-21T07:34:30.685Z,100
2016-11-21T07:35:44.381Z,100
2016-11-21T07:36:58.082Z,105
2016-11-21T07:38:11.784Z,105
2016-11-21T07:39:25.479Z,110
2016-11-21T07:40:39.178Z,115
2016-11-21T07:41:52.867Z,125
2016-11-21T07:43:06.600Z,135
2016-11-21T07:44:20.305Z,140
2016-11-21T07:45:34.023Z,150
2016-11-21T07:46:47.733Z,150
2016-11-21T07:48:01.424Z,150
2016-11-21T07:49:13.855Z,150
2016-11-21T07:50:27.635Z,150
2016-11-21T07:51:41.333Z,155
2016-11-21T07:52:55.027Z,160
2016-11-21T07:54:08.737Z,165
2016-11-21T07:55:22.483Z,170
2016-11-21T07:56:36.165Z,170
2016-11-21T07:57:49.869Z,165
2016-11-21T07:59:03.812Z,170
2016-11-21T08:00:17.536Z,170
2016-11-21T08:01:31.213Z,175
2016-11-21T08:02:44.911Z,180
2016-11-21T08:03:58.607Z,185
2016-11-21T08:05:12.311Z,190
2016-11-21T08:06:26.005Z,195
2016-11-21T08:07:39.700Z,200
2016-11-21T08:08:52.501Z,205
2016-11-21T08:10:06.219Z,215
2016-11-21T08:11:19.939Z,220
2016-11-21T08:12:33.682Z,225
2016-11-21T08:13:47.427Z,235
2016-11-21T08:15:01.119Z,240
2016-11-21T08:16:14.824Z,240
2016-11-21T08:17:28.525Z,245
2016-11-21T08:18:42.236Z,245
2016-11-21T08:19:55.970Z,240
2016-11-21T08:21:09.711Z,230
2016-11-21T08:22:23.420Z,220
2016-11-21T08:23:37.129Z,215
2016-11-21T08:24:50.837Z,210
2016-11-21T08:26:04.577Z,205
2016-11-21T08:27:18.270Z,205
2016-11-21T08:28:31.954Z,205
2016-11-21T08:29:45.658Z,200
2016-11-21T08:30:59.362Z,205
2016-11-21T08:32:13.317Z,205
2016-11-21T08:33:27.010Z,205
2016-11-21T08:34:40.706Z,205
2016-11-21T08:35:54.391Z,210
2016-11-21T08:37:08.091Z,215
2016-11-21T08:38:21.832Z,225
2016-11-21T08:39:35.550Z,240
2016-11-21T08:40:49.297Z,260
2016-11-21T08:42:03.030Z,275
2016-11-21T08:43:16.832Z,295
2016-11-21T08:44:30.535Z,315
2016-11-21T08:45:42.950Z,330
2016-11-21T08:46:56.655Z,350
2016-11-21T08:48:10.395Z,375
2016-11-21T08:49:24.120Z,405
2016-11-21T08:50:38.048Z,525
2016-11-21T08:51:51.752Z,635
2016-11-21T08:53:05.474Z,650
2016-11-21T08:54:19.169Z,755
2016-11-21T08:55:31.599Z,770
2016-11-21T08:56:45.435Z,820
2016-11-21T08:57:59.138Z,840
2016-11-21T08:59:12.880Z,815
2016-11-21T09:00:26.587Z,745
2016-11-21T09:01:40.265Z,715
2016-11-21T09:02:53.976Z,655
2016-11-21T09:04:07.667Z,635
2016-11-21T09:05:20.135Z,585
2016-11-21T09:06:33.887Z,605
2016-11-21T09:07:47.577Z,560
2016-11-21T09:09:00.033Z,515
2016-11-21T09:10:13.737Z,485
2016-11-21T09:11:27.446Z,540
2016-11-21T09:12:41.391Z,610
2016-11-21T09:13:55.090Z,620
2016-11-21T09:15:08.824Z,530
2016-11-21T09:16:22.547Z,615
2016-11-21T09:17:36.261Z,650
2016-11-21T09:18:49.953Z,620
2016-11-21T09:20:03.981Z,525
2016-11-21T09:21:17.711Z,445
2016-11-21T09:22:31.440Z,385
2016-11-21T09:23:45.138Z,340
2016-11-21T09:24:58.837Z,320
2016-11-21T09:26:12.553Z,325
2016-11-21T09:27:26.301Z,325
2016-11-21T09:28:39.995Z,335
2016-11-21T09:29:53.687Z,335
2016-11-21T09:31:07.396Z,345
2016-11-21T09:32:21.101Z,350
2016-11-21T09:33:33.579Z,365
2016-11-21T09:34:47.295Z,380
2016-11-21T09:36:01.001Z,385
2016-11-21T09:37:14.702Z,380
2016-11-21T09:38:28.423Z,365
2016-11-21T09:39:42.187Z,385
2016-11-21T09:40:55.957Z,405
2016-11-21T09:42:09.770Z,440
2016-11-21T09:43:23.929Z,525
2016-11-21T09:44:37.679Z,550
2016-11-21T09:45:51.392Z,580
2016-11-21T09:47:05.125Z,595
2016-11-21T09:48:17.572Z,755
2016-11-21T09:49:31.277Z,790
2016-11-21T09:50:44.999Z,865
2016-11-21T09:51:58.726Z,1205
2016-11-21T09:53:12.427Z,1315
2016-11-21T09:54:26.131Z,1405
2016-11-21T09:55:41.394Z,1330
2016-11-21T09:56:55.397Z,1280
2016-11-21T09:58:10.635Z,1315
2016-11-21T09:59:25.890Z,1325
2016-11-21T10:00:41.160Z,1400
2016-11-21T10:01:56.479Z,1405
2016-11-21T10:03:11.739Z,1470
2016-11-21T10:04:26.988Z,1440
2016-11-21T10:05:42.466Z,1450
2016-11-21T10:07:00.121Z,1475
2016-11-21T10:08:15.435Z,1490
2016-11-21T10:09:30.732Z,1320
2016-11-21T10:10:46.057Z,1255
2016-11-21T10:12:01.570Z,1105
2016-11-21T10:13:17.121Z,1330
2016-11-21T10:14:32.389Z,1005
2016-11-21T10:15:47.649Z,620
2016-11-21T10:17:01.401Z,565
2016-11-21T10:18:15.119Z,600
2016-11-21T10:19:28.872Z,605
2016-11-21T10:20:42.583Z,635
2016-11-21T10:21:56.367Z,625
2016-11-21T10:23:10.089Z,655
2016-11-21T10:24:23.818Z,750
2016-11-21T10:25:37.550Z,1025
2016-11-21T10:26:51.249Z,855
2016-11-21T10:28:04.983Z,845
2016-11-21T10:29:18.710Z,775
2016-11-21T10:31:03.357Z,770
2016-11-21T10:32:47.906Z,775
2016-11-21T10:34:01.620Z,790
2016-11-21T10:35:15.335Z,715
2016-11-21T10:36:29.047Z,655
2016-11-21T10:37:42.748Z,615
2016-11-21T10:38:56.489Z,625
2016-11-21T10:40:10.331Z,630
2016-11-21T10:41:24.072Z,600
2016-11-21T10:42:37.787Z,555
2016-11-21T10:43:51.519Z,505
2016-11-21T10:45:05.301Z,480
2016-11-21T10:46:18.999Z,450
2016-11-21T10:47:32.720Z,440
2016-11-21T10:48:46.463Z,435
2016-11-21T10:50:00.438Z,455
2016-11-21T10:51:14.152Z,480
2016-11-21T10:52:27.880Z,470
2016-11-21T10:53:41.586Z,680
2016-11-21T10:54:55.308Z,1000
2016-11-21T10:56:09.050Z,1140
2016-11-21T10:57:22.843Z,1090
2016-11-21T10:58:36.577Z,855
2016-11-21T10:59:49.011Z,1125
2016-11-21T11:01:02.725Z,1170
2016-11-21T11:02:16.427Z,860
2016-11-21T11:03:30.130Z,1395
2016-11-21T11:04:43.995Z,1430
2016-11-21T11:05:57.732Z,855
2016-11-21T11:07:11.444Z,800
2016-11-21T11:08:23.870Z,710
2016-11-21T11:09:37.793Z,695
2016-11-21T11:10:51.837Z,685
2016-11-21T11:12:04.298Z,830
2016-11-21T11:13:17.997Z,640
2016-11-21T11:14:31.692Z,635
2016-11-21T11:15:43.101Z,645
2016-11-21T11:16:56.961Z,735
2016-11-21T11:18:10.687Z,650
2016-11-21T11:19:24.447Z,665
2016-11-21T11:20:38.161Z,660
2016-11-21T11:21:51.906Z,670
2016-11-21T11:23:05.619Z,695
2016-11-21T11:24:19.568Z,790
2016-11-21T11:25:33.287Z,1050
2016-11-21T11:26:47.020Z,955
2016-11-21T11:28:00.751Z,880
2016-11-21T11:29:14.464Z,1055
2016-11-21T11:30:28.172Z,1005
2016-11-21T11:31:41.887Z,800
2016-11-21T11:32:55.618Z,730
2016-11-21T11:34:09.582Z,735
2016-11-21T11:35:23.288Z,710
2016-11-21T11:36:37.068Z,690
2016-11-21T11:37:50.814Z,725
2016-11-21T11:39:04.520Z,680
2016-11-21T11:40:18.389Z,685
2016-11-21T11:41:30.814Z,660
2016-11-21T11:42:44.538Z,650
2016-11-21T11:43:56.968Z,665
2016-11-21T11:45:10.677Z,660
2016-11-21T11:46:24.385Z,695
2016-11-21T11:47:38.110Z,730
2016-11-21T11:48:51.865Z,1200
2016-11-21T11:50:04.316Z,1110
2016-11-21T11:51:18.076Z,1170
2016-11-21T11:52:31.886Z,1225
2016-11-21T11:53:45.603Z,1150
2016-11-21T11:54:58.045Z,1170
2016-11-21T11:56:11.768Z,1275
2016-11-21T11:57:25.493Z,1065
2016-11-21T11:58:39.258Z,1010
2016-11-21T11:59:53.013Z,1125
2016-11-21T12:01:06.709Z,730
2016-11-21T12:02:20.494Z,665
2016-11-21T12:03:32.897Z,660
2016-11-21T12:04:46.679Z,680
2016-11-21T12:06:00.411Z,750
2016-11-21T12:07:12.850Z,925
2016-11-21T12:08:26.700Z,1095
2016-11-21T12:09:39.175Z,1210
2016-11-21T12:10:51.677Z,1245
2016-11-21T12:12:05.628Z,1235
2016-11-21T12:13:19.567Z,1230
2016-11-21T12:14:33.279Z,1225
2016-11-21T12:15:47.028Z,1090
2016-11-21T12:17:01.042Z,1010
2016-11-21T12:18:14.761Z,935
2016-11-21T12:19:28.475Z,665
2016-11-21T12:20:42.210Z,645
2016-11-21T12:21:55.910Z,585
2016-11-21T12:23:09.643Z,565
2016-11-21T12:24:23.342Z,540
2016-11-21T12:25:37.052Z,555
2016-11-21T12:26:50.762Z,555
2016-11-21T12:28:04.487Z,565
2016-11-21T12:29:18.191Z,585
2016-11-21T12:30:30.604Z,575
2016-11-21T12:31:44.404Z,560
2016-11-21T12:32:58.157Z,555
2016-11-21T12:34:11.883Z,550
2016-11-21T12:35:25.579Z,555
2016-11-21T12:36:39.342Z,565
2016-11-21T12:37:53.047Z,555
2016-11-21T12:39:05.509Z,545
2016-11-21T12:40:19.228Z,540
2016-11-21T12:41:32.972Z,545
2016-11-21T12:42:46.742Z,530
2016-11-21T12:44:00.450Z,500
2016-11-21T12:45:13.103Z,485
2016-11-21T12:46:26.831Z,475
2016-11-21T12:47:40.586Z,465
2016-11-21T12:48:54.300Z,455
2016-11-21T12:50:08.086Z,435
2016-11-21T12:51:21.817Z,420
2016-11-21T12:52:35.543Z,415
2016-11-21T12:53:49.262Z,405
2016-11-21T12:55:02.985Z,405
2016-11-21T12:56:15.529Z,390
2016-11-21T12:57:29.456Z,370
2016-11-21T12:58:43.247Z,350
2016-11-21T13:00:09.779Z,335
2016-11-21T13:01:23.503Z,325
2016-11-21T13:02:37.202Z,325
2016-11-21T13:03:50.935Z,330
2016-11-21T13:05:04.725Z,335
2016-11-21T13:06:18.524Z,340
2016-11-21T13:07:36.529Z,345
2016-11-21T13:08:50.348Z,340
2016-11-21T13:14:53.463Z,285
2016-11-21T13:16:27.000Z,275
2016-11-21T13:18:30.552Z,265
2016-11-21T13:20:46.994Z,260
2016-11-21T13:22:56.977Z,245
2016-11-21T13:27:02.824Z,220
2016-11-21T13:28:21.755Z,215
2016-11-21T13:33:43.695Z,230
2016-11-21T13:35:31.229Z,245
2016-11-21T13:39:09.151Z,265
2016-11-21T13:41:38.540Z,260
2016-11-21T13:42:58.515Z,250
2016-11-21T13:44:18.489Z,230
2016-11-21T13:46:28.739Z,205
2016-11-21T13:47:42.462Z,195
2016-11-21T13:48:54.895Z,180
2016-11-21T13:50:08.608Z,170
2016-11-21T13:51:22.345Z,160
2016-11-21T13:52:36.060Z,150
2016-11-21T13:53:49.936Z,140
2016-11-21T13:55:02.397Z,135
2016-11-21T13:56:16.130Z,135
2016-11-21T13:57:29.852Z,130
2016-11-21T13:58:43.596Z,125
2016-11-21T13:59:57.346Z,125
2016-11-21T14:01:11.056Z,120
2016-11-21T14:02:24.787Z,120
2016-11-21T14:03:38.514Z,115
2016-11-21T14:04:52.217Z,115
2016-11-21T14:06:05.940Z,110
2016-11-21T14:07:19.667Z,110
2016-11-21T14:08:33.387Z,115
2016-11-21T14:09:47.206Z,115
2016-11-21T14:11:00.947Z,115
2016-11-21T14:12:14.680Z,115
2016-11-21T14:13:28.410Z,115
2016-11-21T14:14:40.982Z,120
2016-11-21T14:15:54.681Z,125
2016-11-21T14:17:08.393Z,125
2016-11-21T14:18:20.794Z,120
2016-11-21T14:19:34.535Z,110
2016-11-21T14:20:48.258Z,105
2016-11-21T14:22:02.031Z,95
2016-11-21T14:23:15.773Z,90
2016-11-21T14:24:29.609Z,90
2016-11-21T14:25:43.392Z,85
2016-11-21T14:26:57.098Z,85
2016-11-21T14:28:09.530Z,85
2016-11-21T14:29:23.266Z,80
2016-11-21T14:30:36.995Z,80
2016-11-21T14:31:50.707Z,75
2016-11-21T14:33:04.399Z,70
2016-11-21T14:34:16.815Z,70
2016-11-21T14:35:30.592Z,65
2016-11-21T14:36:44.389Z,65
2016-11-21T14:37:58.093Z,65
2016-11-21T14:39:11.802Z,65
2016-11-21T14:40:24.213Z,65
2016-11-21T14:41:37.921Z,65
2016-11-21T14:42:51.854Z,60
2016-11-21T14:44:05.571Z,60
2016-11-21T14:45:19.340Z,55
2016-11-21T14:46:33.041Z,50
2016-11-21T14:47:46.795Z,50
2016-11-21T14:49:00.731Z,45
2016-11-21T14:50:13.165Z,40
2016-11-21T14:51:27.084Z,40
2016-11-21T14:52:40.844Z,35
2016-11-21T14:53:53.309Z,35
2016-11-21T14:55:07.008Z,30
2016-11-21T14:56:20.717Z,30
2016-11-21T14:57:34.684Z,25
2016-11-21T14:58:48.621Z,25
2016-11-21T15:00:02.332Z,20
2016-11-21T15:01:16.132Z,20
2016-11-21T15:02:28.888Z,20
2016-11-21T15:03:42.586Z,15
2016-11-21T15:04:56.305Z,15
2016-11-21T15:06:08.748Z,15
2016-11-21T15:07:21.213Z,10
2016-11-21T15:08:34.909Z,10
2016-11-21T15:09:48.605Z,10
2016-11-21T15:11:02.306Z,10
2016-11-21T15:12:16.009Z,10
2016-11-21T15:13:29.720Z,10
2016-11-21T15:14:43.442Z,5
2016-11-21T15:15:57.168Z,5
2016-11-21T15:17:10.981Z,5
2016-11-21T15:18:24.696Z,5
2016-11-21T15:19:38.413Z,5
2016-11-21T15:20:52.119Z,5
2016-11-21T15:22:05.827Z,5
2016-11-21T15:23:19.749Z,0
2016-11-21T15:24:33.479Z,0
2016-11-21T15:25:47.347Z,0
2016-11-21T15:27:01.071Z,0
2016-11-21T15:28:13.512Z,0
2016-11-21T15:29:27.245Z,0
2016-11-21T15:30:41.004Z,0
2016-11-21T15:31:54.708Z,0
2016-11-21T15:33:07.119Z,0
2016-11-21T15:34:20.840Z,0
2016-11-21T15:35:34.544Z,0
2016-11-21T15:36:47.066Z,0
2016-11-21T15:38:00.766Z,0
2016-11-21T15:39:14.503Z,0
2016-11-21T15:40:28.220Z,0
2016-11-21T15:41:41.987Z,0
2016-11-21T15:42:55.676Z,0
2016-11-21T15:44:08.086Z,0
2016-11-21T15:45:21.835Z,0
2016-11-21T15:46:34.255Z,0
2016-11-21T15:47:47.965Z,0
2016-11-21T15:49:01.681Z,0
2016-11-21T15:50:15.414Z,0
2016-11-21T15:51:27.893Z,0
2016-11-21T15:52:41.593Z,0
2016-11-21T15:53:55.286Z,0
2016-11-21T15:55:09.054Z,0
2016-11-21T15:56:22.781Z,0
2016-11-21T15:57:36.480Z,0
2016-11-21T15:58:50.233Z,0
2016-11-21T16:00:03.951Z,0
2016-11-21T16:01:17.726Z,0
2016-11-21T16:02:31.492Z,0
2016-11-21T16:03:43.902Z,0
2016-11-21T16:04:57.612Z,0
2016-11-21T16:06:11.310Z,0
2016-11-21T16:07:25.015Z,0
2016-11-21T16:08:38.786Z,0
2016-11-21T16:09:52.536Z,0
2016-11-21T16:11:06.285Z,0
2016-11-21T16:12:20.004Z,0
2016-11-21T16:13:34.163Z,0
2016-11-21T16:14:47.872Z,0
2016-11-21T16:16:01.580Z,0
2016-11-21T16:17:15.275Z,0
2016-11-21T16:18:29.044Z,0
2016-11-21T16:19:42.755Z,0
2016-11-21T16:20:56.493Z,0
2016-11-21T16:22:10.246Z,0
2016-11-21T16:23:24.055Z,0
2016-11-21T16:24:36.833Z,0
2016-11-21T16:25:50.537Z,0
2016-11-21T16:27:04.237Z,0
2016-11-21T16:28:17.967Z,0
2016-11-21T16:29:30.387Z,0
2016-11-21T16:30:44.111Z,0
2016-11-21T16:31:57.981Z,0
2016-11-21T16:33:11.703Z,0
2016-11-21T16:34:25.423Z,0
2016-11-21T16:35:39.167Z,0
2016-11-21T16:36:52.873Z,0
2016-11-21T16:38:06.637Z,0
2016-11-21T16:39:20.358Z,0
2016-11-21T16:40:34.155Z,0
2016-11-21T16:41:48.131Z,0
2016-11-21T16:43:01.822Z,0
2016-11-21T16:44:15.533Z,0
2016-11-21T16:45:29.267Z,0
2016-11-21T16:46:41.693Z,0
2016-11-21T16:47:55.422Z,0
2016-11-21T16:49:07.877Z,0
2016-11-21T16:50:51.217Z,0
2016-11-21T16:52:03.736Z,0
2016-11-21T16:53:16.168Z,0
2016-11-21T16:54:29.876Z,0
2016-11-21T16:55:44.024Z,0
2016-11-21T16:56:57.756Z,0
2016-11-21T16:58:11.449Z,0
2016-11-21T16:59:25.143Z,0
2016-11-21T17:00:38.962Z,0
2016-11-21T17:01:52.931Z,0
2016-11-21T17:03:05.392Z,0
2016-11-21T17:04:19.317Z,0
2016-11-21T17:05:33.028Z,0
2016-11-21T17:06:46.732Z,0
2016-11-21T17:07:59.183Z,0
2016-11-21T17:09:12.896Z,0
2016-11-21T17:10:26.600Z,0
2016-11-21T17:11:40.311Z,0
2016-11-21T17:12:54.055Z,0
2016-11-21T17:14:07.763Z,0
2016-11-21T17:15:21.483Z,0
2016-11-21T17:16:35.223Z,0
2016-11-21T17:17:49.096Z,0
2016-11-21T17:19:03.058Z,0
2016-11-21T17:20:16.785Z,0
2016-11-21T17:21:30.618Z,0
2016-11-21T17:22:43.054Z,0
2016-11-21T17:23:56.789Z,0
2016-11-21T17:25:10.543Z,0
2016-11-21T17:26:24.255Z,0
2016-11-21T17:27:37.977Z,0
2016-11-21T17:28:50.544Z,0
2016-11-21T17:30:04.269Z,0
2016-11-21T17:31:17.992Z,0
2016-11-21T17:32:30.414Z,0
2016-11-21T17:33:44.145Z,0
2016-11-21T17:34:57.890Z,0
2016-11-21T17:36:11.611Z,0
2016-11-21T17:37:25.344Z,0
2016-11-21T17:38:39.101Z,0
2016-11-21T17:39:52.831Z,0
2016-11-21T17:41:06.661Z,0
2016-11-21T17:42:20.425Z,0
2016-11-21T17:43:34.155Z,0
2016-11-21T17:44:47.876Z,0
2016-11-21T17:46:01.608Z,0
2016-11-21T17:47:15.496Z,0
2016-11-21T17:48:29.321Z,0
2016-11-21T17:49:43.043Z,0
2016-11-21T17:50:56.823Z,0
2016-11-21T17:52:09.482Z,0
2016-11-21T17:53:23.203Z,0
2016-11-21T17:54:36.927Z,0
2016-11-21T17:55:50.648Z,0